sensor_id;sensor_type;location;lat;lon;timestamp;P1;P2;P0
65383;PMS5003;51986;52.788;41.368;2023-05-02T00:01:52;34.00;29.00;22.00
65383;PMS5003;51986;52.788;41.368;2023-05-02T00:04:20;32.50;27.25;22.00
65383;PMS5003;51986;52.788;41.368;2023-05-02T00:06:47;35.00;28.50;22.00
65383;PMS5003;51986;52.788;41.368;2023-05-02T00:09:14;36.00;29.00;23.00
65383;PMS5003;51986;52.788;41.368;2023-05-02T00:11:41;35.00;29.00;23.00
65383;PMS5003;51986;52.788;41.368;2023-05-02T00:14:08;33.00;28.50;22.00
65383;PMS5003;51986;52.788;41.368;2023-05-02T00:16:35;30.50;26.50;21.00
65383;PMS5003;51986;52.788;41.368;2023-05-02T00:19:02;33.00;28.75;22.00
65383;PMS5003;51986;52.788;41.368;2023-05-02T00:21:29;32.00;28.00;23.00
65383;PMS5003;51986;52.788;41.368;2023-05-02T00:23:56;32.00;27.00;22.00
65383;PMS5003;51986;52.788;41.368;2023-05-02T00:26:23;31.00;26.00;20.50
65383;PMS5003;51986;52.788;41.368;2023-05-02T00:28:50;32.25;26.50;21.25
65383;PMS5003;51986;52.788;41.368;2023-05-02T00:31:17;34.00;28.00;22.00
65383;PMS5003;51986;52.788;41.368;2023-05-02T00:33:44;33.50;28.00;22.00
65383;PMS5003;51986;52.788;41.368;2023-05-02T00:36:15;33.00;27.00;22.00
65383;PMS5003;51986;52.788;41.368;2023-05-02T00:38:43;33.00;28.00;22.00
65383;PMS5003;51986;52.788;41.368;2023-05-02T00:41:10;33.00;28.00;22.00
65383;PMS5003;51986;52.788;41.368;2023-05-02T00:43:37;34.00;28.00;22.00
65383;PMS5003;51986;52.788;41.368;2023-05-02T00:46:04;33.00;28.00;22.00
65383;PMS5003;51986;52.788;41.368;2023-05-02T00:48:32;33.00;27.50;21.50
65383;PMS5003;51986;52.788;41.368;2023-05-02T00:51:01;34.00;28.00;22.00
65383;PMS5003;51986;52.788;41.368;2023-05-02T00:53:30;33.50;28.00;22.00
65383;PMS5003;51986;52.788;41.368;2023-05-02T00:55:57;33.00;28.00;22.50
65383;PMS5003;51986;52.788;41.368;2023-05-02T00:58:25;34.00;29.00;23.00
65383;PMS5003;51986;52.788;41.368;2023-05-02T01:15:20;34.50;28.50;22.25
65383;PMS5003;51986;52.788;41.368;2023-05-02T01:17:49;32.00;27.00;21.00
65383;PMS5003;51986;52.788;41.368;2023-05-02T01:20:19;32.00;26.50;21.00
65383;PMS5003;51986;52.788;41.368;2023-05-02T01:22:48;33.75;29.00;22.00
65383;PMS5003;51986;52.788;41.368;2023-05-02T01:30:53;30.00;26.00;21.00
65383;PMS5003;51986;52.788;41.368;2023-05-02T01:33:21;31.50;27.25;22.00
65383;PMS5003;51986;52.788;41.368;2023-05-02T01:35:51;32.00;27.00;22.00
65383;PMS5003;51986;52.788;41.368;2023-05-02T01:38:21;32.25;27.50;22.00
65383;PMS5003;51986;52.788;41.368;2023-05-02T01:40:49;30.00;25.50;20.50
65383;PMS5003;51986;52.788;41.368;2023-05-02T01:43:17;32.00;27.00;21.75
65383;PMS5003;51986;52.788;41.368;2023-05-02T01:45:47;33.00;28.00;21.50
65383;PMS5003;51986;52.788;41.368;2023-05-02T01:48:16;32.00;27.00;22.00
65383;PMS5003;51986;52.788;41.368;2023-05-02T01:50:45;33.50;28.25;22.25
65383;PMS5003;51986;52.788;41.368;2023-05-02T01:53:14;32.00;27.25;23.00
65383;PMS5003;51986;52.788;41.368;2023-05-02T01:55:42;31.50;27.50;22.00
65383;PMS5003;51986;52.788;41.368;2023-05-02T01:58:11;32.00;27.50;22.00
65383;PMS5003;51986;52.788;41.368;2023-05-02T02:00:40;31.00;27.00;21.00
65383;PMS5003;51986;52.788;41.368;2023-05-02T02:03:09;32.00;27.00;22.00
65383;PMS5003;51986;52.788;41.368;2023-05-02T02:05:38;26.75;24.00;19.75
65383;PMS5003;51986;52.788;41.368;2023-05-02T02:08:06;26.00;23.00;19.00
65383;PMS5003;51986;52.788;41.368;2023-05-02T02:10:35;28.00;24.00;20.00
65383;PMS5003;51986;52.788;41.368;2023-05-02T02:13:14;31.00;26.00;22.00
65383;PMS5003;51986;52.788;41.368;2023-05-02T02:15:45;30.50;26.00;21.50
65383;PMS5003;51986;52.788;41.368;2023-05-02T02:18:21;30.00;26.00;21.00
65383;PMS5003;51986;52.788;41.368;2023-05-02T02:20:51;30.00;26.00;21.00
65383;PMS5003;51986;52.788;41.368;2023-05-02T02:23:20;30.00;26.00;21.00
65383;PMS5003;51986;52.788;41.368;2023-05-02T02:25:51;29.00;26.00;21.00
65383;PMS5003;51986;52.788;41.368;2023-05-02T02:28:20;28.00;24.00;20.00
65383;PMS5003;51986;52.788;41.368;2023-05-02T02:30:48;29.50;26.00;21.00
65383;PMS5003;51986;52.788;41.368;2023-05-02T02:33:15;29.00;26.00;20.50
65383;PMS5003;51986;52.788;41.368;2023-05-02T02:35:43;29.00;25.00;20.00
65383;PMS5003;51986;52.788;41.368;2023-05-02T02:38:25;28.00;25.00;20.00
65383;PMS5003;51986;52.788;41.368;2023-05-02T02:41:02;27.25;24.00;19.50
65383;PMS5003;51986;52.788;41.368;2023-05-02T02:54:48;31.00;26.50;21.50
65383;PMS5003;51986;52.788;41.368;2023-05-02T03:00:15;28.00;24.00;20.00
65383;PMS5003;51986;52.788;41.368;2023-05-02T03:02:46;27.00;24.00;20.00
65383;PMS5003;51986;52.788;41.368;2023-05-02T03:05:14;27.00;24.00;20.00
65383;PMS5003;51986;52.788;41.368;2023-05-02T03:07:42;29.25;26.00;21.50
65383;PMS5003;51986;52.788;41.368;2023-05-02T03:10:09;26.75;24.50;20.00
65383;PMS5003;51986;52.788;41.368;2023-05-02T03:12:38;29.00;26.00;21.00
65383;PMS5003;51986;52.788;41.368;2023-05-02T03:17:55;29.00;25.50;21.00
65383;PMS5003;51986;52.788;41.368;2023-05-02T03:20:22;23.75;22.00;19.00
65383;PMS5003;51986;52.788;41.368;2023-05-02T03:22:49;27.00;24.50;20.00
65383;PMS5003;51986;52.788;41.368;2023-05-02T03:25:16;30.00;26.00;21.00
65383;PMS5003;51986;52.788;41.368;2023-05-02T03:27:47;29.00;25.00;21.00
65383;PMS5003;51986;52.788;41.368;2023-05-02T03:30:14;28.50;25.00;20.00
65383;PMS5003;51986;52.788;41.368;2023-05-02T03:32:41;29.00;25.50;21.00
65383;PMS5003;51986;52.788;41.368;2023-05-02T03:35:08;26.00;23.50;19.00
65383;PMS5003;51986;52.788;41.368;2023-05-02T03:37:40;26.00;24.00;19.00
65383;PMS5003;51986;52.788;41.368;2023-05-02T03:40:07;26.50;24.00;19.00
65383;PMS5003;51986;52.788;41.368;2023-05-02T03:42:34;28.50;24.75;20.75
65383;PMS5003;51986;52.788;41.368;2023-05-02T03:45:01;28.00;25.00;21.00
65383;PMS5003;51986;52.788;41.368;2023-05-02T03:47:29;28.00;24.00;20.00
65383;PMS5003;51986;52.788;41.368;2023-05-02T03:49:56;28.00;24.00;20.25
65383;PMS5003;51986;52.788;41.368;2023-05-02T03:52:24;28.00;24.00;20.00
65383;PMS5003;51986;52.788;41.368;2023-05-02T03:54:52;28.00;24.50;21.00
65383;PMS5003;51986;52.788;41.368;2023-05-02T03:57:19;30.00;26.00;21.00
65383;PMS5003;51986;52.788;41.368;2023-05-02T03:59:46;29.50;25.50;21.00
65383;PMS5003;51986;52.788;41.368;2023-05-02T04:02:22;28.00;24.00;21.00
65383;PMS5003;51986;52.788;41.368;2023-05-02T04:04:49;29.00;25.00;21.00
65383;PMS5003;51986;52.788;41.368;2023-05-02T04:07:19;29.00;25.75;20.00
65383;PMS5003;51986;52.788;41.368;2023-05-02T04:09:56;29.00;25.00;20.75
65383;PMS5003;51986;52.788;41.368;2023-05-02T04:12:23;28.50;24.50;20.75
65383;PMS5003;51986;52.788;41.368;2023-05-02T04:14:51;27.50;23.50;20.00
65383;PMS5003;51986;52.788;41.368;2023-05-02T04:17:22;30.25;26.00;21.50
65383;PMS5003;51986;52.788;41.368;2023-05-02T04:19:49;31.00;26.00;21.50
65383;PMS5003;51986;52.788;41.368;2023-05-02T04:22:21;30.00;26.00;21.00
65383;PMS5003;51986;52.788;41.368;2023-05-02T04:24:52;29.00;25.00;21.00
65383;PMS5003;51986;52.788;41.368;2023-05-02T04:27:21;28.00;24.00;21.00
65383;PMS5003;51986;52.788;41.368;2023-05-02T04:29:48;26.75;23.00;20.00
65383;PMS5003;51986;52.788;41.368;2023-05-02T04:32:17;29.00;25.25;21.00
65383;PMS5003;51986;52.788;41.368;2023-05-02T04:34:46;29.00;26.00;21.00
65383;PMS5003;51986;52.788;41.368;2023-05-02T04:37:14;29.00;25.75;21.00
65383;PMS5003;51986;52.788;41.368;2023-05-02T04:39:43;27.00;24.00;20.00
65383;PMS5003;51986;52.788;41.368;2023-05-02T04:42:16;25.50;23.00;19.00
65383;PMS5003;51986;52.788;41.368;2023-05-02T04:45:08;26.50;23.75;19.00
65383;PMS5003;51986;52.788;41.368;2023-05-02T04:47:35;26.00;23.50;19.00
65383;PMS5003;51986;52.788;41.368;2023-05-02T04:50:02;27.75;24.00;20.75
65383;PMS5003;51986;52.788;41.368;2023-05-02T04:52:29;27.00;24.00;20.00
65383;PMS5003;51986;52.788;41.368;2023-05-02T04:54:56;28.25;25.00;21.00
65383;PMS5003;51986;52.788;41.368;2023-05-02T04:57:23;23.25;22.00;18.50
65383;PMS5003;51986;52.788;41.368;2023-05-02T04:59:54;25.00;23.00;19.00
65383;PMS5003;51986;52.788;41.368;2023-05-02T05:02:21;22.50;21.00;18.50
65383;PMS5003;51986;52.788;41.368;2023-05-02T05:04:49;26.75;24.00;19.00
65383;PMS5003;51986;52.788;41.368;2023-05-02T05:07:17;27.75;24.00;20.50
65383;PMS5003;51986;52.788;41.368;2023-05-02T05:09:47;28.00;24.00;21.00
65383;PMS5003;51986;52.788;41.368;2023-05-02T05:12:17;28.00;25.00;21.00
65383;PMS5003;51986;52.788;41.368;2023-05-02T05:14:44;27.50;24.00;20.00
65383;PMS5003;51986;52.788;41.368;2023-05-02T05:17:11;26.00;23.00;20.00
65383;PMS5003;51986;52.788;41.368;2023-05-02T05:19:38;24.00;21.75;18.00
65383;PMS5003;51986;52.788;41.368;2023-05-02T05:22:06;26.25;23.00;19.75
65383;PMS5003;51986;52.788;41.368;2023-05-02T05:24:33;26.00;23.00;19.00
65383;PMS5003;51986;52.788;41.368;2023-05-02T05:27:01;28.00;24.25;20.25
65383;PMS5003;51986;52.788;41.368;2023-05-02T05:29:30;26.00;23.50;19.00
65383;PMS5003;51986;52.788;41.368;2023-05-02T05:31:58;26.00;23.00;20.00
65383;PMS5003;51986;52.788;41.368;2023-05-02T05:34:26;21.00;20.25;17.25
65383;PMS5003;51986;52.788;41.368;2023-05-02T05:36:56;20.25;20.00;17.00
65383;PMS5003;51986;52.788;41.368;2023-05-02T05:39:23;23.25;22.00;19.00
65383;PMS5003;51986;52.788;41.368;2023-05-02T05:41:53;25.50;23.00;19.00
65383;PMS5003;51986;52.788;41.368;2023-05-02T05:44:38;25.50;23.50;19.00
65383;PMS5003;51986;52.788;41.368;2023-05-02T05:47:07;22.50;21.00;18.50
65383;PMS5003;51986;52.788;41.368;2023-05-02T05:49:34;24.75;22.75;18.50
65383;PMS5003;51986;52.788;41.368;2023-05-02T05:52:05;27.00;24.00;20.00
65383;PMS5003;51986;52.788;41.368;2023-05-02T05:54:32;26.50;23.25;20.00
65383;PMS5003;51986;52.788;41.368;2023-05-02T05:56:59;28.00;25.00;21.00
65383;PMS5003;51986;52.788;41.368;2023-05-02T05:59:26;28.00;24.00;20.00
65383;PMS5003;51986;52.788;41.368;2023-05-02T06:01:53;28.50;25.00;21.00
65383;PMS5003;51986;52.788;41.368;2023-05-02T06:04:21;28.00;24.00;21.00
65383;PMS5003;51986;52.788;41.368;2023-05-02T06:06:50;26.00;23.00;19.00
65383;PMS5003;51986;52.788;41.368;2023-05-02T06:09:18;27.75;23.75;20.00
65383;PMS5003;51986;52.788;41.368;2023-05-02T06:11:45;28.00;24.00;20.00
65383;PMS5003;51986;52.788;41.368;2023-05-02T06:14:32;28.00;24.00;20.00
65383;PMS5003;51986;52.788;41.368;2023-05-02T06:16:59;28.00;25.00;20.00
65383;PMS5003;51986;52.788;41.368;2023-05-02T06:19:26;28.00;25.00;20.75
65383;PMS5003;51986;52.788;41.368;2023-05-02T06:21:53;27.50;24.00;20.00
65383;PMS5003;51986;52.788;41.368;2023-05-02T06:24:20;27.75;24.00;20.00
65383;PMS5003;51986;52.788;41.368;2023-05-02T06:27:06;28.75;25.75;21.00
65383;PMS5003;51986;52.788;41.368;2023-05-02T06:29:33;28.00;24.00;20.00
65383;PMS5003;51986;52.788;41.368;2023-05-02T06:32:00;26.00;24.00;20.00
65383;PMS5003;51986;52.788;41.368;2023-05-02T06:34:27;26.75;24.00;20.00
65383;PMS5003;51986;52.788;41.368;2023-05-02T06:36:54;28.00;24.00;21.00
65383;PMS5003;51986;52.788;41.368;2023-05-02T06:39:21;27.50;24.50;20.50
65383;PMS5003;51986;52.788;41.368;2023-05-02T06:41:48;31.00;26.00;21.00
65383;PMS5003;51986;52.788;41.368;2023-05-02T06:44:16;31.00;26.00;21.00
65383;PMS5003;51986;52.788;41.368;2023-05-02T06:46:43;31.00;26.00;21.00
65383;PMS5003;51986;52.788;41.368;2023-05-02T06:49:28;29.00;25.00;21.00
65383;PMS5003;51986;52.788;41.368;2023-05-02T06:51:56;28.25;24.00;20.25
65383;PMS5003;51986;52.788;41.368;2023-05-02T06:54:25;29.00;25.00;21.00
65383;PMS5003;51986;52.788;41.368;2023-05-02T06:56:54;28.50;25.00;21.00
65383;PMS5003;51986;52.788;41.368;2023-05-02T06:59:21;28.00;24.00;21.00
65383;PMS5003;51986;52.788;41.368;2023-05-02T07:01:51;28.00;24.00;20.00
65383;PMS5003;51986;52.788;41.368;2023-05-02T07:04:18;28.00;24.00;21.00
65383;PMS5003;51986;52.788;41.368;2023-05-02T07:06:45;28.50;25.00;21.00
65383;PMS5003;51986;52.788;41.368;2023-05-02T07:09:15;28.75;24.75;21.00
65383;PMS5003;51986;52.788;41.368;2023-05-02T07:11:42;29.00;25.50;21.00
65383;PMS5003;51986;52.788;41.368;2023-05-02T07:14:09;30.00;26.00;21.00
65383;PMS5003;51986;52.788;41.368;2023-05-02T07:16:36;29.00;26.00;21.00
65383;PMS5003;51986;52.788;41.368;2023-05-02T07:19:03;27.00;24.00;20.00
65383;PMS5003;51986;52.788;41.368;2023-05-02T07:21:30;27.25;25.00;20.00
65383;PMS5003;51986;52.788;41.368;2023-05-02T07:23:57;28.75;25.00;20.75
65383;PMS5003;51986;52.788;41.368;2023-05-02T07:26:24;27.25;24.00;20.00
65383;PMS5003;51986;52.788;41.368;2023-05-02T07:28:51;29.75;25.75;22.00
65383;PMS5003;51986;52.788;41.368;2023-05-02T07:31:21;30.00;27.00;22.00
65383;PMS5003;51986;52.788;41.368;2023-05-02T07:33:49;30.75;27.00;22.00
65383;PMS5003;51986;52.788;41.368;2023-05-02T07:36:34;30.00;27.00;22.00
65383;PMS5003;51986;52.788;41.368;2023-05-02T07:39:01;27.75;24.25;20.00
65383;PMS5003;51986;52.788;41.368;2023-05-02T07:41:28;28.00;25.00;20.00
65383;PMS5003;51986;52.788;41.368;2023-05-02T07:43:55;28.50;25.00;21.00
65383;PMS5003;51986;52.788;41.368;2023-05-02T07:49:08;32.00;27.50;23.00
65383;PMS5003;51986;52.788;41.368;2023-05-02T07:51:35;32.00;27.00;23.00
65383;PMS5003;51986;52.788;41.368;2023-05-02T07:54:21;32.00;27.50;23.00
65383;PMS5003;51986;52.788;41.368;2023-05-02T07:56:52;32.50;28.00;22.50
65383;PMS5003;51986;52.788;41.368;2023-05-02T07:59:19;32.50;27.50;23.00
65383;PMS5003;51986;52.788;41.368;2023-05-02T08:01:45;33.00;28.00;22.50
65383;PMS5003;51986;52.788;41.368;2023-05-02T08:04:15;32.50;27.00;22.00
65383;PMS5003;51986;52.788;41.368;2023-05-02T08:06:43;31.00;27.00;23.00
65383;PMS5003;51986;52.788;41.368;2023-05-02T08:09:10;31.50;27.50;22.00
65383;PMS5003;51986;52.788;41.368;2023-05-02T08:11:37;31.00;27.00;22.00
65383;PMS5003;51986;52.788;41.368;2023-05-02T08:14:04;31.00;27.00;22.00
65383;PMS5003;51986;52.788;41.368;2023-05-02T08:16:31;30.00;26.00;21.00
65383;PMS5003;51986;52.788;41.368;2023-05-02T08:18:58;30.00;25.50;21.00
65383;PMS5003;51986;52.788;41.368;2023-05-02T08:21:25;30.00;26.75;22.00
65383;PMS5003;51986;52.788;41.368;2023-05-02T08:23:52;27.75;24.50;20.25
65383;PMS5003;51986;52.788;41.368;2023-05-02T08:26:23;31.00;27.00;22.00
65383;PMS5003;51986;52.788;41.368;2023-05-02T08:28:50;31.00;26.00;21.00
65383;PMS5003;51986;52.788;41.368;2023-05-02T08:31:18;31.00;26.50;21.00
65383;PMS5003;51986;52.788;41.368;2023-05-02T08:33:45;31.00;26.00;21.00
65383;PMS5003;51986;52.788;41.368;2023-05-02T08:36:16;32.00;27.75;22.00
65383;PMS5003;51986;52.788;41.368;2023-05-02T08:38:44;32.00;27.00;22.00
65383;PMS5003;51986;52.788;41.368;2023-05-02T08:41:16;30.50;26.00;21.00
65383;PMS5003;51986;52.788;41.368;2023-05-02T08:43:44;29.00;26.00;20.00
65383;PMS5003;51986;52.788;41.368;2023-05-02T08:46:13;29.00;25.00;21.00
65383;PMS5003;51986;52.788;41.368;2023-05-02T08:48:42;30.00;26.00;22.00
65383;PMS5003;51986;52.788;41.368;2023-05-02T08:51:12;30.00;26.00;21.00
65383;PMS5003;51986;52.788;41.368;2023-05-02T08:53:41;31.00;26.00;22.00
65383;PMS5003;51986;52.788;41.368;2023-05-02T08:56:09;32.00;27.00;21.50
65383;PMS5003;51986;52.788;41.368;2023-05-02T08:58:37;32.00;28.00;22.00
65383;PMS5003;51986;52.788;41.368;2023-05-02T09:01:08;29.25;26.00;21.00
65383;PMS5003;51986;52.788;41.368;2023-05-02T09:03:38;30.00;26.00;21.00
65383;PMS5003;51986;52.788;41.368;2023-05-02T09:06:15;24.75;22.75;19.00
65383;PMS5003;51986;52.788;41.368;2023-05-02T09:08:45;29.00;25.00;21.00
65383;PMS5003;51986;52.788;41.368;2023-05-02T09:11:13;30.50;26.25;21.75
65383;PMS5003;51986;52.788;41.368;2023-05-02T09:13:45;31.00;27.00;22.00
65383;PMS5003;51986;52.788;41.368;2023-05-02T09:16:18;29.50;25.00;21.00
65383;PMS5003;51986;52.788;41.368;2023-05-02T09:21:22;29.00;25.00;21.00
65383;PMS5003;51986;52.788;41.368;2023-05-02T09:24:00;30.00;26.00;22.00
65383;PMS5003;51986;52.788;41.368;2023-05-02T09:26:31;32.00;27.00;22.00
65383;PMS5003;51986;52.788;41.368;2023-05-02T09:29:03;29.00;25.00;21.00
65383;PMS5003;51986;52.788;41.368;2023-05-02T09:31:33;30.50;26.00;21.50
65383;PMS5003;51986;52.788;41.368;2023-05-02T09:34:21;31.00;27.00;22.00
65383;PMS5003;51986;52.788;41.368;2023-05-02T09:36:49;32.00;27.00;22.00
65383;PMS5003;51986;52.788;41.368;2023-05-02T09:39:19;31.25;26.50;21.00
65383;PMS5003;51986;52.788;41.368;2023-05-02T09:41:50;33.00;27.50;22.00
65383;PMS5003;51986;52.788;41.368;2023-05-02T09:44:18;30.00;26.00;20.00
65383;PMS5003;51986;52.788;41.368;2023-05-02T09:46:48;28.00;24.00;20.00
65383;PMS5003;51986;52.788;41.368;2023-05-02T09:49:17;29.25;25.25;21.00
65383;PMS5003;51986;52.788;41.368;2023-05-02T09:51:45;31.75;27.00;22.00
65383;PMS5003;51986;52.788;41.368;2023-05-02T09:54:13;32.00;27.00;22.75
65383;PMS5003;51986;52.788;41.368;2023-05-02T09:57:02;36.75;29.50;23.00
65383;PMS5003;51986;52.788;41.368;2023-05-02T09:59:27;33.00;27.00;22.00
65383;PMS5003;51986;52.788;41.368;2023-05-02T10:01:55;32.00;27.00;21.50
65383;PMS5003;51986;52.788;41.368;2023-05-02T10:04:24;32.00;27.00;21.50
65383;PMS5003;51986;52.788;41.368;2023-05-02T10:06:52;32.00;27.00;22.00
65383;PMS5003;51986;52.788;41.368;2023-05-02T10:09:20;35.50;30.25;22.75
65383;PMS5003;51986;52.788;41.368;2023-05-02T10:11:56;33.00;28.00;22.00
65383;PMS5003;51986;52.788;41.368;2023-05-02T10:14:27;33.00;28.00;22.00
65383;PMS5003;51986;52.788;41.368;2023-05-02T10:19:53;31.00;27.00;21.00
65383;PMS5003;51986;52.788;41.368;2023-05-02T10:22:34;30.00;26.00;21.00
65383;PMS5003;51986;52.788;41.368;2023-05-02T10:25:02;30.00;26.00;21.00
65383;PMS5003;51986;52.788;41.368;2023-05-02T10:27:30;30.00;26.00;21.00
65383;PMS5003;51986;52.788;41.368;2023-05-02T10:29:58;29.00;24.50;20.50
65383;PMS5003;51986;52.788;41.368;2023-05-02T10:32:26;29.50;24.50;20.50
65383;PMS5003;51986;52.788;41.368;2023-05-02T10:34:57;28.00;24.00;20.00
65383;PMS5003;51986;52.788;41.368;2023-05-02T10:37:29;30.00;26.25;22.00
65383;PMS5003;51986;52.788;41.368;2023-05-02T10:39:58;29.50;25.50;21.00
65383;PMS5003;51986;52.788;41.368;2023-05-02T10:42:27;29.00;26.00;21.00
65383;PMS5003;51986;52.788;41.368;2023-05-02T10:44:58;29.00;25.00;21.00
65383;PMS5003;51986;52.788;41.368;2023-05-02T10:47:26;29.25;25.50;21.00
65383;PMS5003;51986;52.788;41.368;2023-05-02T10:49:54;30.00;27.00;22.00
65383;PMS5003;51986;52.788;41.368;2023-05-02T10:55:18;29.25;26.00;21.00
65383;PMS5003;51986;52.788;41.368;2023-05-02T11:00:34;30.25;26.00;21.00
65383;PMS5003;51986;52.788;41.368;2023-05-02T11:03:05;32.00;28.00;23.00
65383;PMS5003;51986;52.788;41.368;2023-05-02T11:05:32;32.00;27.50;22.00
65383;PMS5003;51986;52.788;41.368;2023-05-02T11:08:31;30.50;26.00;21.50
65383;PMS5003;51986;52.788;41.368;2023-05-02T11:22:31;29.00;25.00;21.00
65383;PMS5003;51986;52.788;41.368;2023-05-02T11:24:59;28.25;25.00;21.00
65383;PMS5003;51986;52.788;41.368;2023-05-02T11:35:19;39.50;32.25;24.50
65383;PMS5003;51986;52.788;41.368;2023-05-02T11:37:54;40.00;33.00;25.00
65383;PMS5003;51986;52.788;41.368;2023-05-02T11:40:26;37.25;31.00;24.00
65383;PMS5003;51986;52.788;41.368;2023-05-02T11:42:54;35.00;30.00;24.00
65383;PMS5003;51986;52.788;41.368;2023-05-02T11:45:23;31.50;27.00;22.00
65383;PMS5003;51986;52.788;41.368;2023-05-02T11:47:59;31.00;27.00;21.50
65383;PMS5003;51986;52.788;41.368;2023-05-02T11:50:26;32.00;27.00;22.00
65383;PMS5003;51986;52.788;41.368;2023-05-02T11:52:53;30.00;25.75;21.00
65383;PMS5003;51986;52.788;41.368;2023-05-02T11:55:25;31.00;27.00;22.00
65383;PMS5003;51986;52.788;41.368;2023-05-02T11:57:54;31.00;27.00;21.00
65383;PMS5003;51986;52.788;41.368;2023-05-02T12:00:36;30.00;26.00;21.00
65383;PMS5003;51986;52.788;41.368;2023-05-02T12:03:50;30.00;26.00;21.00
65383;PMS5003;51986;52.788;41.368;2023-05-02T12:06:12;29.00;26.00;21.00
65383;PMS5003;51986;52.788;41.368;2023-05-02T12:08:45;28.00;24.00;21.00
65383;PMS5003;51986;52.788;41.368;2023-05-02T12:11:12;27.00;24.00;20.00
65383;PMS5003;51986;52.788;41.368;2023-05-02T12:13:44;28.00;25.00;20.50
65383;PMS5003;51986;52.788;41.368;2023-05-02T12:16:19;29.00;25.50;21.00
65383;PMS5003;51986;52.788;41.368;2023-05-02T12:18:46;30.25;26.75;22.00
65383;PMS5003;51986;52.788;41.368;2023-05-02T12:21:13;32.00;27.25;21.25
65383;PMS5003;51986;52.788;41.368;2023-05-02T12:23:44;33.50;28.25;22.00
65383;PMS5003;51986;52.788;41.368;2023-05-02T12:28:49;31.00;27.00;21.00
65383;PMS5003;51986;52.788;41.368;2023-05-02T12:31:20;31.00;26.00;21.00
65383;PMS5003;51986;52.788;41.368;2023-05-02T12:33:50;26.50;24.00;20.00
65383;PMS5003;51986;52.788;41.368;2023-05-02T12:36:18;27.00;24.00;20.00
65383;PMS5003;51986;52.788;41.368;2023-05-02T12:38:49;29.25;25.00;21.00
65383;PMS5003;51986;52.788;41.368;2023-05-02T12:41:29;30.00;26.00;21.00
65383;PMS5003;51986;52.788;41.368;2023-05-02T12:44:01;30.00;25.00;21.00
65383;PMS5003;51986;52.788;41.368;2023-05-02T12:46:28;26.50;24.25;20.00
65383;PMS5003;51986;52.788;41.368;2023-05-02T12:49:09;28.00;24.50;20.00
65383;PMS5003;51986;52.788;41.368;2023-05-02T12:51:39;31.00;26.75;22.00
65383;PMS5003;51986;52.788;41.368;2023-05-02T12:54:07;31.75;27.00;22.00
65383;PMS5003;51986;52.788;41.368;2023-05-02T12:56:40;30.50;25.50;21.00
65383;PMS5003;51986;52.788;41.368;2023-05-02T12:59:07;27.50;24.00;20.00
65383;PMS5003;51986;52.788;41.368;2023-05-02T13:01:36;28.00;24.00;21.00
65383;PMS5003;51986;52.788;41.368;2023-05-02T13:04:07;29.00;24.50;21.00
65383;PMS5003;51986;52.788;41.368;2023-05-02T13:06:38;29.00;25.50;21.00
65383;PMS5003;51986;52.788;41.368;2023-05-02T13:09:07;30.00;26.00;21.00
65383;PMS5003;51986;52.788;41.368;2023-05-02T13:11:34;31.00;27.00;21.50
65383;PMS5003;51986;52.788;41.368;2023-05-02T13:14:01;31.00;26.50;21.00
65383;PMS5003;51986;52.788;41.368;2023-05-02T13:16:32;30.00;26.00;21.00
65383;PMS5003;51986;52.788;41.368;2023-05-02T13:19:03;31.00;27.00;22.00
65383;PMS5003;51986;52.788;41.368;2023-05-02T13:21:30;29.00;25.00;21.00
65383;PMS5003;51986;52.788;41.368;2023-05-02T13:23:57;31.00;27.00;22.00
65383;PMS5003;51986;52.788;41.368;2023-05-02T13:26:29;30.00;26.00;22.00
65383;PMS5003;51986;52.788;41.368;2023-05-02T13:28:58;30.50;27.00;22.00
65383;PMS5003;51986;52.788;41.368;2023-05-02T13:31:25;32.00;27.00;22.00
65383;PMS5003;51986;52.788;41.368;2023-05-02T13:33:52;31.00;27.00;22.00
65383;PMS5003;51986;52.788;41.368;2023-05-02T13:36:19;32.00;27.00;22.00
65383;PMS5003;51986;52.788;41.368;2023-05-02T13:38:46;32.50;28.00;22.00
65383;PMS5003;51986;52.788;41.368;2023-05-02T13:41:13;30.00;26.00;21.00
65383;PMS5003;51986;52.788;41.368;2023-05-02T13:43:40;30.00;26.00;21.00
65383;PMS5003;51986;52.788;41.368;2023-05-02T13:46:07;30.75;26.75;21.25
65383;PMS5003;51986;52.788;41.368;2023-05-02T13:48:34;31.75;27.00;21.00
65383;PMS5003;51986;52.788;41.368;2023-05-02T13:51:01;31.00;27.00;21.00
65383;PMS5003;51986;52.788;41.368;2023-05-02T13:53:28;33.00;28.00;23.00
65383;PMS5003;51986;52.788;41.368;2023-05-02T13:55:55;29.75;26.00;21.00
65383;PMS5003;51986;52.788;41.368;2023-05-02T13:58:22;31.00;26.00;21.00
65383;PMS5003;51986;52.788;41.368;2023-05-02T14:00:49;31.00;27.00;22.00
65383;PMS5003;51986;52.788;41.368;2023-05-02T14:03:16;32.00;27.00;23.00
65383;PMS5003;51986;52.788;41.368;2023-05-02T14:05:43;32.00;27.00;22.50
65383;PMS5003;51986;52.788;41.368;2023-05-02T14:08:10;31.00;27.00;21.00
65383;PMS5003;51986;52.788;41.368;2023-05-02T14:10:40;37.00;30.25;23.00
65383;PMS5003;51986;52.788;41.368;2023-05-02T14:13:06;34.00;28.75;23.00
65383;PMS5003;51986;52.788;41.368;2023-05-02T14:15:35;32.00;27.00;22.75
65383;PMS5003;51986;52.788;41.368;2023-05-02T14:18:05;32.00;27.00;22.00
65383;PMS5003;51986;52.788;41.368;2023-05-02T14:20:40;29.75;26.00;21.00
65383;PMS5003;51986;52.788;41.368;2023-05-02T14:23:07;30.50;26.50;21.00
65383;PMS5003;51986;52.788;41.368;2023-05-02T14:25:36;31.50;27.00;21.50
65383;PMS5003;51986;52.788;41.368;2023-05-02T14:28:03;32.00;28.00;21.00
65383;PMS5003;51986;52.788;41.368;2023-05-02T14:30:31;32.00;28.00;22.00
65383;PMS5003;51986;52.788;41.368;2023-05-02T14:32:58;31.00;27.00;21.00
65383;PMS5003;51986;52.788;41.368;2023-05-02T14:35:27;32.00;27.00;22.50
65383;PMS5003;51986;52.788;41.368;2023-05-02T14:37:54;33.75;28.00;23.00
65383;PMS5003;51986;52.788;41.368;2023-05-02T14:40:21;34.00;28.00;23.00
65383;PMS5003;51986;52.788;41.368;2023-05-02T14:42:48;33.00;27.00;22.00
65383;PMS5003;51986;52.788;41.368;2023-05-02T14:45:15;35.00;29.75;23.00
65383;PMS5003;51986;52.788;41.368;2023-05-02T14:47:42;32.00;28.00;22.50
65383;PMS5003;51986;52.788;41.368;2023-05-02T14:50:14;32.00;28.00;22.75
65383;PMS5003;51986;52.788;41.368;2023-05-02T14:52:42;32.00;27.25;22.00
65383;PMS5003;51986;52.788;41.368;2023-05-02T14:55:08;32.00;27.50;22.00
65383;PMS5003;51986;52.788;41.368;2023-05-02T14:57:35;32.00;27.00;21.00
65383;PMS5003;51986;52.788;41.368;2023-05-02T15:00:05;32.00;27.50;23.00